Hovedside
METAR-TAF:

METAR-TAF

Lufthavner :

Linköping, Sverige

Flystasjon

breddegrad: 58-24N, lengdegrad: 015-31E, høyde over havet: 93 m

Gjeldene værobservasjon

Denne rapporten ble laget for 36 minutter siden, klokken 20:50 UTC
Vind 4 kt fra Nord-nordøst
Temperatur -9°C
Luftfuktighet 85%
Trykk 1038 hPa
Sikt 10 km eller mer

METAR: ESCF 242050Z AUTO 02004KT 9999 SCT026/// BKN074/// M09/M11 Q1038

Tid: 22:26 (21:26 UTC)


TAF: fraværende

Værobservasjoner og værvarsel for over 4000 flyplasser (METAR- og TAF-rapporter).

Tilgjengelige stasjoner er representert av de røde og gule prikkene på kartet.

Hold musepekeren over prikken for å se navnet på stasjonen.

Klikk så for å se værobservasjoner og -varsler.

For å forandre kartet kan du klikke på den grønne knappen med svart kryss for å zoome inn, på den grønne knappen med strek for å zoome ut, eller på de grønne pilene for å se tilstøtende kart.


METAR-TAF: